createdAt,value
2019-04-22T00:01:57.860Z,98667.87
2019-04-22T00:04:40.234Z,98671.02
2019-04-22T00:07:29.180Z,98670.76
2019-04-22T00:10:06.378Z,98672.47
2019-04-22T00:12:42.096Z,98683.37
2019-04-22T00:15:10.000Z,98682.60
2019-04-22T00:18:25.187Z,98674.75
2019-04-22T00:20:58.279Z,98683.48
2019-04-22T00:23:33.345Z,98676.84
2019-04-22T00:26:13.768Z,98676.53
2019-04-22T00:28:43.998Z,98684.52
2019-04-22T00:31:16.960Z,98677.38
2019-04-22T00:33:52.928Z,98676.38
2019-04-22T00:36:29.330Z,98677.16
2019-04-22T00:39:07.114Z,98668.30
2019-04-22T00:41:37.176Z,98675.55
2019-04-22T00:44:13.817Z,98672.59
2019-04-22T00:46:52.526Z,98673.75
2019-04-22T00:52:03.292Z,98663.09
2019-04-22T00:54:43.854Z,98666.58
2019-04-22T00:57:12.314Z,98660.14
2019-04-22T00:59:45.798Z,98662.09
2019-04-22T01:02:24.550Z,98661.38
2019-04-22T01:04:55.034Z,98658.53
2019-04-22T01:07:24.873Z,98663.73
2019-04-22T01:10:06.625Z,98651.36
2019-04-22T01:12:39.592Z,98646.98
2019-04-22T01:15:17.585Z,98643.90
2019-04-22T01:17:45.439Z,98638.23
2019-04-22T01:23:13.026Z,98636.95
2019-04-22T01:25:46.235Z,98631.84
2019-04-22T01:28:20.201Z,98623.89
2019-04-22T01:30:51.712Z,98620.89
2019-04-22T01:33:23.873Z,98617.33
2019-04-22T01:36:15.072Z,98623.80
2019-04-22T01:38:56.768Z,98613.89
2019-04-22T01:41:35.327Z,98613.86
2019-04-22T01:44:21.587Z,98600.55
2019-04-22T01:46:36.910Z,98587.36
2019-04-22T01:49:22.490Z,98580.81
2019-04-22T01:52:05.086Z,98569.79
2019-04-22T01:54:46.679Z,98575.63
2019-04-22T01:57:22.661Z,98565.79
2019-04-22T01:59:51.990Z,98555.45
2019-04-22T02:02:40.001Z,98562.63
2019-04-22T02:05:12.333Z,98545.64
2019-04-22T02:07:42.488Z,98533.34
2019-04-22T02:10:26.858Z,98537.41
2019-04-22T02:12:55.430Z,98528.14
2019-04-22T02:15:47.343Z,98530.91
2019-04-22T02:18:10.726Z,98530.39
2019-04-22T02:20:43.207Z,98528.28
2019-04-22T02:26:34.247Z,98506.23
2019-04-22T02:29:01.098Z,98501.05
2019-04-22T02:36:34.018Z,98477.37
2019-04-22T02:39:11.807Z,98470.23
2019-04-22T02:42:09.510Z,98459.72
2019-04-22T02:44:26.320Z,98445.30
2019-04-22T02:47:14.096Z,98449.67
2019-04-22T02:49:34.599Z,98445.36
2019-04-22T03:00:09.704Z,98406.38
2019-04-22T03:02:41.376Z,98386.03
2019-04-22T03:05:08.852Z,98383.87
2019-04-22T03:07:50.653Z,98384.57
2019-04-22T03:10:23.908Z,98377.81
2019-04-22T03:12:51.622Z,98385.17
2019-04-22T03:15:20.008Z,98378.44
2019-04-22T03:18:20.049Z,98379.24
2019-04-22T03:20:42.856Z,98378.19
2019-04-22T03:23:35.880Z,98365.01
2019-04-22T03:28:51.111Z,98372.51
2019-04-22T03:34:55.407Z,98349.70
2019-04-22T03:42:07.137Z,98322.61
2019-04-22T03:47:16.097Z,98308.07
2019-04-22T03:50:14.428Z,98300.26
2019-04-22T03:52:24.792Z,98287.69
2019-04-22T03:55:16.064Z,98290.48
2019-04-22T04:00:26.506Z,98287.59
2019-04-22T04:03:07.784Z,98299.81
2019-04-22T04:08:33.534Z,98268.13
2019-04-22T04:16:04.672Z,98243.61
2019-04-22T04:18:46.775Z,98235.66
2019-04-22T04:21:30.033Z,98241.63
2019-04-22T04:24:01.355Z,98227.13
2019-04-22T04:26:45.559Z,98227.10
2019-04-22T04:29:32.903Z,98230.09
2019-04-22T04:32:09.847Z,98223.53
2019-04-22T04:35:03.220Z,98215.95
2019-04-22T04:37:38.751Z,98204.81
2019-04-22T04:39:55.147Z,98198.99
2019-04-22T04:42:35.216Z,98195.98
2019-04-22T04:47:43.790Z,98177.69
2019-04-22T04:50:09.798Z,98173.81
2019-04-22T04:55:22.077Z,98170.14
2019-04-22T04:58:10.133Z,98163.13
2019-04-22T05:06:01.517Z,98138.33
2019-04-22T05:08:52.114Z,98141.87
2019-04-22T05:11:37.262Z,98127.63
2019-04-22T05:14:06.024Z,98126.84
2019-04-22T05:19:15.470Z,98109.41
2019-04-22T05:21:53.436Z,98100.46
2019-04-22T05:24:30.807Z,98102.14
2019-04-22T05:27:05.362Z,98107.23
2019-04-22T05:29:54.079Z,98098.84
2019-04-22T05:32:09.230Z,98083.32
2019-04-22T05:34:48.190Z,98074.77
2019-04-22T05:37:20.758Z,98079.75
2019-04-22T05:40:04.441Z,98062.59
2019-04-22T05:42:23.666Z,98055.78
2019-04-22T05:45:10.666Z,98041.31
2019-04-22T05:47:44.387Z,98037.34
2019-04-22T05:50:12.999Z,98033.23
2019-04-22T05:52:55.366Z,98024.64
2019-04-22T05:58:02.844Z,98014.88
2019-04-22T06:01:05.731Z,98017.66
2019-04-22T06:03:16.511Z,98017.50
2019-04-22T06:05:47.922Z,98019.03
2019-04-22T06:08:24.166Z,97999.80
2019-04-22T06:11:04.116Z,97989.70
2019-04-22T06:13:33.052Z,97982.83
2019-04-22T06:16:14.640Z,97982.30
2019-04-22T06:18:48.979Z,97969.16
2019-04-22T06:21:28.080Z,97964.10
2019-04-22T06:24:04.796Z,97983.70
2019-04-22T06:26:45.829Z,97977.48
2019-04-22T06:29:32.029Z,97970.19
2019-04-22T06:34:27.624Z,97957.00
2019-04-22T06:37:04.696Z,97946.06
2019-04-22T06:42:07.934Z,97926.69
2019-04-22T06:44:36.876Z,97924.33
2019-04-22T06:47:25.132Z,97931.39
2019-04-22T06:49:52.558Z,97939.80
2019-04-22T06:55:03.934Z,97937.52
2019-04-22T06:57:36.967Z,97960.47
2019-04-22T07:00:11.850Z,97953.19
2019-04-22T07:02:57.807Z,97943.95
2019-04-22T07:05:23.560Z,97929.73
2019-04-22T07:08:04.095Z,97927.00
2019-04-22T07:10:35.002Z,97945.16
2019-04-22T07:13:00.942Z,97935.73
2019-04-22T07:15:50.593Z,97937.83
2019-04-22T07:18:24.888Z,97929.58
2019-04-22T07:23:27.117Z,97902.16
2019-04-22T07:26:13.973Z,97908.62
2019-04-22T07:28:29.131Z,97888.34
2019-04-22T07:31:11.348Z,97878.83
2019-04-22T07:33:51.798Z,97869.36
2019-04-22T07:38:56.469Z,97865.30
2019-04-22T07:41:31.847Z,97851.94
2019-04-22T07:44:24.175Z,97854.65
2019-04-22T07:46:54.326Z,97833.34
2019-04-22T07:49:18.340Z,97833.21
2019-04-22T07:51:50.271Z,97830.17
2019-04-22T07:54:26.322Z,97819.12
2019-04-22T07:57:08.958Z,97802.17
2019-04-22T07:59:35.276Z,97809.69
2019-04-22T08:02:16.177Z,97827.37
2019-04-22T08:05:03.986Z,97823.63
2019-04-22T08:07:24.176Z,97824.77
2019-04-22T08:10:08.782Z,97811.92
2019-04-22T08:12:39.078Z,97813.46
2019-04-22T08:15:13.093Z,97825.37
2019-04-22T08:17:55.093Z,97818.92
2019-04-22T08:20:23.843Z,97807.00
2019-04-22T08:23:00.400Z,97807.69
2019-04-22T08:25:31.437Z,97813.10
2019-04-22T08:28:10.239Z,97801.95
2019-04-22T08:30:50.819Z,97816.84
2019-04-22T08:33:21.749Z,97794.05
2019-04-22T08:36:06.472Z,97778.02
2019-04-22T08:38:48.747Z,97800.59
2019-04-22T08:41:23.505Z,97805.40
2019-04-22T08:43:57.477Z,97806.05
2019-04-22T08:49:00.806Z,97781.92
2019-04-22T08:51:36.019Z,97768.62
2019-04-22T08:54:13.240Z,97766.63
2019-04-22T08:56:56.845Z,97775.50
2019-04-22T08:59:21.784Z,97783.44
2019-04-22T09:02:10.147Z,97814.17
2019-04-22T09:04:36.511Z,97841.84
2019-04-22T09:07:21.150Z,97858.39
2019-04-22T09:09:50.621Z,97866.18
2019-04-22T09:12:23.859Z,97865.56
2019-04-22T09:14:52.103Z,97875.80
2019-04-22T09:17:51.416Z,97897.92
2019-04-22T09:20:11.327Z,97910.67
2019-04-22T09:22:41.127Z,97892.97
2019-04-22T09:25:17.033Z,97873.05
2019-04-22T09:27:51.243Z,97863.55
2019-04-22T09:30:34.665Z,97858.02
2019-04-22T09:33:11.065Z,97868.17
2019-04-22T09:35:45.008Z,97884.11
2019-04-22T09:38:34.681Z,97878.30
2019-04-22T09:41:14.010Z,97866.02
2019-04-22T09:43:40.660Z,97853.89
2019-04-22T09:46:14.817Z,97825.62
2019-04-22T09:48:59.051Z,97808.19
2019-04-22T09:51:32.532Z,97807.66
2019-04-22T09:54:20.165Z,97812.81
2019-04-22T09:59:13.936Z,97815.28
2019-04-22T10:02:08.448Z,97807.72
2019-04-22T10:04:25.393Z,97809.10
2019-04-22T10:07:01.004Z,97803.97
2019-04-22T10:09:52.866Z,97818.06
2019-04-22T10:12:19.309Z,97846.52
2019-04-22T10:15:00.289Z,97878.13
2019-04-22T10:17:58.271Z,97871.19
2019-04-22T10:20:36.356Z,97868.20
2019-04-22T10:23:12.838Z,97861.23
2019-04-22T10:25:46.062Z,97858.03
2019-04-22T10:30:59.834Z,97870.13
2019-04-22T10:33:38.377Z,97868.55
2019-04-22T10:35:55.326Z,97860.41
2019-04-22T10:38:34.490Z,97863.77
2019-04-22T10:41:10.212Z,97867.97
2019-04-22T10:43:45.272Z,97867.73
2019-04-22T10:46:22.198Z,97890.41
2019-04-22T10:48:58.047Z,97897.56
2019-04-22T10:51:32.741Z,97906.53
2019-04-22T10:54:09.619Z,97910.10
2019-04-22T10:56:45.231Z,97908.53
2019-04-22T10:59:20.485Z,97904.94
2019-04-22T11:01:55.595Z,97899.58
2019-04-22T11:04:32.272Z,97887.83
2019-04-22T11:07:10.497Z,97887.66
2019-04-22T11:09:51.796Z,97893.83
2019-04-22T11:12:21.479Z,97899.81
2019-04-22T11:14:53.752Z,97902.99
2019-04-22T11:17:31.546Z,97912.33
2019-04-22T11:20:06.222Z,97908.54
2019-04-22T11:22:42.692Z,97905.74
2019-04-22T11:25:18.042Z,97913.70
2019-04-22T11:27:55.794Z,97913.73
2019-04-22T11:30:32.253Z,97922.88
2019-04-22T11:33:06.788Z,97930.25
2019-04-22T11:35:41.702Z,97935.60
2019-04-22T11:38:17.059Z,97947.35
2019-04-22T11:40:54.391Z,97946.97
2019-04-22T11:43:28.643Z,97948.95
2019-04-22T11:46:03.238Z,97952.32
2019-04-22T11:48:40.501Z,97950.73
2019-04-22T11:51:15.949Z,97955.10
2019-04-22T11:53:49.873Z,97976.19
2019-04-22T11:56:27.132Z,97989.34
2019-04-22T11:59:02.815Z,97992.31
2019-04-22T12:01:39.517Z,97996.87
2019-04-22T12:04:14.279Z,98016.56
2019-04-22T12:06:51.621Z,98023.73
2019-04-22T12:09:27.802Z,98041.80
2019-04-22T12:12:14.040Z,98054.53
2019-04-22T12:14:52.246Z,98069.23
2019-04-22T12:17:31.879Z,98081.55
2019-04-22T12:20:14.069Z,98078.33
2019-04-22T12:22:49.142Z,98094.44
2019-04-22T12:25:34.684Z,98114.27
2019-04-22T12:28:08.965Z,98129.16
2019-04-22T12:30:48.386Z,98138.23
2019-04-22T12:33:25.267Z,98143.00
2019-04-22T12:36:06.405Z,98157.03
2019-04-22T12:38:45.182Z,98163.77
2019-04-22T12:41:21.961Z,98168.27
2019-04-22T12:43:58.992Z,98174.58
2019-04-22T12:49:12.144Z,98166.42
2019-04-22T12:51:49.323Z,98156.43
2019-04-22T12:54:24.783Z,98147.14
2019-04-22T12:57:01.737Z,98135.20
2019-04-22T12:59:39.780Z,98132.30
2019-04-22T13:02:15.477Z,98125.42
2019-04-22T13:04:52.308Z,98106.22
2019-04-22T13:07:29.634Z,98091.12
2019-04-22T13:10:05.963Z,98085.36
2019-04-22T13:12:40.961Z,98084.73
2019-04-22T13:15:37.027Z,98065.59
2019-04-22T13:18:26.991Z,98068.79
2019-04-22T13:20:51.054Z,98057.73
2019-04-22T13:23:29.646Z,98044.77
2019-04-22T13:26:12.948Z,98038.81
2019-04-22T13:28:49.173Z,98039.68
2019-04-22T13:31:28.864Z,98025.59
2019-04-22T13:34:05.660Z,98011.17
2019-04-22T13:36:43.548Z,97986.29
2019-04-22T13:39:18.795Z,97966.72
2019-04-22T13:41:59.945Z,97975.47
2019-04-22T13:44:33.598Z,97946.59
2019-04-22T13:47:21.481Z,97960.01
2019-04-22T13:50:16.703Z,97967.38
2019-04-22T13:52:53.598Z,97978.48
2019-04-22T13:58:00.769Z,97994.54
2019-04-22T14:00:27.071Z,98017.69
2019-04-22T14:03:04.626Z,98008.78
2019-04-22T14:05:42.528Z,97963.67
2019-04-22T14:08:18.052Z,97940.03
2019-04-22T14:10:52.504Z,97907.38
2019-04-22T14:13:27.665Z,97860.33
2019-04-22T14:16:04.576Z,97830.78
2019-04-22T14:18:41.081Z,97833.94
2019-04-22T14:21:18.804Z,97833.68
2019-04-22T14:23:53.051Z,97797.66
2019-04-22T14:26:47.936Z,97807.31
2019-04-22T14:29:06.039Z,97817.19
2019-04-22T14:32:04.283Z,97825.99
2019-04-22T14:34:28.227Z,97846.55
2019-04-22T14:37:12.128Z,97851.83
2019-04-22T14:39:48.140Z,97873.95
2019-04-22T14:42:44.043Z,97875.88
2019-04-22T14:45:21.949Z,97866.59
2019-04-22T14:48:01.493Z,97836.21
2019-04-22T14:50:33.609Z,97856.24
2019-04-22T14:53:05.463Z,97846.32
2019-04-22T14:55:23.887Z,97830.70
2019-04-22T14:57:56.903Z,97826.91
2019-04-22T15:00:33.774Z,97838.66
2019-04-22T15:03:08.235Z,97868.58
2019-04-22T15:05:42.118Z,97913.65
2019-04-22T15:08:17.138Z,97950.31
2019-04-22T15:10:51.730Z,97937.80
2019-04-22T15:13:31.587Z,97960.47
2019-04-22T15:16:05.965Z,97937.61
2019-04-22T15:18:39.829Z,97950.39
2019-04-22T15:21:14.495Z,97944.16
2019-04-22T15:23:50.770Z,97902.75
2019-04-22T15:26:28.553Z,97909.80
2019-04-22T15:29:03.108Z,97915.50
2019-04-22T15:31:37.451Z,97920.26
2019-04-22T15:34:12.307Z,97924.36
2019-04-22T15:36:46.204Z,97928.68
2019-04-22T15:39:20.791Z,97906.11
2019-04-22T15:42:01.748Z,97881.24
2019-04-22T15:44:30.404Z,97843.76
2019-04-22T15:47:06.864Z,97837.78
2019-04-22T15:49:42.163Z,97845.56
2019-04-22T15:52:16.657Z,97833.83
2019-04-22T15:54:53.555Z,97846.75
2019-04-22T15:57:26.787Z,97840.77
2019-04-22T16:00:17.623Z,97846.02
2019-04-22T16:02:37.431Z,97861.13
2019-04-22T16:05:12.768Z,97872.85
2019-04-22T16:07:46.365Z,97886.16
2019-04-22T16:10:20.120Z,97889.28
2019-04-22T16:13:03.514Z,97894.97
2019-04-22T16:15:30.639Z,97912.43
2019-04-22T16:18:05.330Z,97905.94
2019-04-22T16:20:40.409Z,97908.50
2019-04-22T16:23:15.285Z,97885.52
2019-04-22T16:25:49.477Z,97876.47
2019-04-22T16:28:25.301Z,97862.42
2019-04-22T16:30:59.680Z,97869.16
2019-04-22T16:33:36.468Z,97869.00
2019-04-22T16:36:09.180Z,97866.81
2019-04-22T16:38:44.747Z,97891.61
2019-04-22T16:41:18.834Z,97872.45
2019-04-22T16:43:54.217Z,97887.66
2019-04-22T16:46:28.024Z,97879.63
2019-04-22T16:49:01.705Z,97882.20
2019-04-22T16:51:36.175Z,97877.42
2019-04-22T16:54:11.670Z,97877.42
2019-04-22T16:56:45.755Z,97870.92
2019-04-22T16:59:19.501Z,97871.35
2019-04-22T17:01:54.452Z,97870.34
2019-04-22T17:04:28.349Z,97878.73
2019-04-22T17:07:03.597Z,97920.31
2019-04-22T17:09:37.530Z,97953.94
2019-04-22T17:12:12.013Z,97979.44
2019-04-22T17:14:52.701Z,98012.51
2019-04-22T17:17:22.098Z,98013.74
2019-04-22T17:19:57.539Z,98011.53
2019-04-22T17:22:33.561Z,98009.64
2019-04-22T17:25:08.693Z,97991.02
2019-04-22T17:27:43.471Z,97949.30
2019-04-22T17:30:17.750Z,97911.71
2019-04-22T17:32:52.479Z,97900.81
2019-04-22T17:35:26.375Z,97895.98
2019-04-22T17:38:08.873Z,97896.04
2019-04-22T17:40:52.248Z,97898.59
2019-04-22T17:43:44.091Z,97903.70
2019-04-22T17:46:07.296Z,97924.17
2019-04-22T17:48:40.624Z,97926.76
2019-04-22T17:51:22.940Z,97925.87
2019-04-22T17:53:55.978Z,97895.70
2019-04-22T17:56:27.663Z,97881.06
2019-04-22T17:59:02.754Z,97880.25
2019-04-22T18:01:35.594Z,97864.44
2019-04-22T18:03:55.532Z,97862.20
2019-04-22T18:06:54.801Z,97867.42
2019-04-22T18:09:27.702Z,97855.09
2019-04-22T18:12:05.407Z,97829.19
2019-04-22T18:14:44.971Z,97838.97
2019-04-22T18:17:11.381Z,97845.73
2019-04-22T18:19:39.648Z,97838.66
2019-04-22T18:22:14.034Z,97898.48
2019-04-22T18:24:50.131Z,97916.10
2019-04-22T18:30:02.354Z,97888.22
2019-04-22T18:32:42.518Z,97891.09
2019-04-22T18:35:14.095Z,97893.93
2019-04-22T18:37:54.786Z,97906.16
2019-04-22T18:40:30.986Z,97917.93
2019-04-22T18:43:04.375Z,97920.63
2019-04-22T18:48:06.264Z,97902.33
2019-04-22T18:51:00.171Z,97880.12
2019-04-22T18:53:27.347Z,97889.70
2019-04-22T18:55:56.948Z,97903.55
2019-04-22T18:58:32.250Z,97900.19
2019-04-22T19:00:52.507Z,97900.16
2019-04-22T19:03:29.912Z,97902.48
2019-04-22T19:06:30.633Z,97924.73
2019-04-22T19:08:55.499Z,97919.64
2019-04-22T19:11:35.456Z,97925.10
2019-04-22T19:14:07.567Z,97918.62
2019-04-22T19:16:39.847Z,97922.23
2019-04-22T19:19:33.301Z,97915.05
2019-04-22T19:21:53.633Z,97914.47
2019-04-22T19:24:22.928Z,97918.98
2019-04-22T19:27:02.013Z,97921.28
2019-04-22T19:29:39.221Z,97913.13
2019-04-22T19:32:08.372Z,97919.64
2019-04-22T19:34:44.362Z,97930.70
2019-04-22T19:37:17.386Z,97930.99
2019-04-22T19:40:03.489Z,97928.23
2019-04-22T19:42:36.672Z,97920.80
2019-04-22T19:45:05.855Z,97934.63
2019-04-22T19:47:41.863Z,97925.75
2019-04-22T19:50:19.199Z,97945.99
2019-04-22T19:52:50.299Z,97942.14
2019-04-22T19:55:32.564Z,97961.02
2019-04-22T19:57:59.834Z,97963.39
2019-04-22T20:00:34.015Z,97967.86
2019-04-22T20:03:16.081Z,97975.80
2019-04-22T20:05:50.889Z,97979.68
2019-04-22T20:08:21.317Z,97968.54
2019-04-22T20:10:52.287Z,97969.12
2019-04-22T20:13:37.250Z,97971.77
2019-04-22T20:15:57.505Z,97964.58
2019-04-22T20:18:50.146Z,97983.67
2019-04-22T20:21:19.409Z,97979.89
2019-04-22T20:23:41.838Z,97987.33
2019-04-22T20:26:17.887Z,97994.73
2019-04-22T20:28:58.942Z,98006.02
2019-04-22T20:31:43.062Z,98023.77
2019-04-22T20:34:17.343Z,98020.56
2019-04-22T20:37:01.790Z,98034.56
2019-04-22T20:39:27.079Z,98039.95
2019-04-22T20:41:57.735Z,98037.55
2019-04-22T20:44:35.302Z,98034.02
2019-04-22T20:47:07.276Z,98047.27
2019-04-22T20:49:44.482Z,98066.52
2019-04-22T20:54:49.071Z,98067.12
2019-04-22T20:57:23.972Z,98062.97
2019-04-22T20:59:55.930Z,98059.13
2019-04-22T21:02:27.718Z,98090.67
2019-04-22T21:04:59.054Z,98092.34
2019-04-22T21:07:38.526Z,98107.09
2019-04-22T21:10:19.919Z,98107.10
2019-04-22T21:12:50.942Z,98117.93
2019-04-22T21:15:37.405Z,98125.77
2019-04-22T21:18:08.382Z,98122.48
2019-04-22T21:20:48.184Z,98128.27
2019-04-22T21:23:17.821Z,98132.42
2019-04-22T21:25:43.045Z,98134.95
2019-04-22T21:28:28.891Z,98131.75
2019-04-22T21:30:57.174Z,98146.14
2019-04-22T21:33:37.886Z,98142.28
2019-04-22T21:36:20.147Z,98147.52
2019-04-22T21:38:43.477Z,98146.16
2019-04-22T21:41:20.537Z,98143.66
2019-04-22T21:43:58.221Z,98147.00
2019-04-22T21:46:37.035Z,98146.33
2019-04-22T21:49:16.612Z,98149.66
2019-04-22T21:51:49.597Z,98158.97
2019-04-22T21:54:21.636Z,98169.52
2019-04-22T21:57:07.425Z,98157.78
2019-04-22T21:59:30.144Z,98149.19
2019-04-22T22:02:04.421Z,98149.54
2019-04-22T22:04:36.585Z,98151.78
2019-04-22T22:06:59.650Z,98156.28
2019-04-22T22:09:50.718Z,98154.38
2019-04-22T22:12:24.648Z,98151.85
2019-04-22T22:15:00.870Z,98148.27
2019-04-22T22:17:31.119Z,98142.70
2019-04-22T22:20:07.478Z,98142.70
2019-04-22T22:25:21.261Z,98161.58
2019-04-22T22:27:49.461Z,98170.67
2019-04-22T22:30:51.260Z,98172.45
2019-04-22T22:33:05.717Z,98171.87
2019-04-22T22:35:40.872Z,98152.81
2019-04-22T22:38:19.166Z,98171.58
2019-04-22T22:40:34.486Z,98172.27
2019-04-22T22:43:18.953Z,98162.95
2019-04-22T22:45:48.897Z,98166.23
2019-04-22T22:48:41.451Z,98161.34
2019-04-22T22:51:09.631Z,98157.95
2019-04-22T22:53:57.050Z,98159.94
2019-04-22T22:56:27.399Z,98171.58
2019-04-22T22:59:01.773Z,98175.91
2019-04-22T23:01:36.141Z,98160.81
2019-04-22T23:04:12.864Z,98181.41
2019-04-22T23:06:44.414Z,98192.64
2019-04-22T23:09:19.209Z,98199.84
2019-04-22T23:12:06.041Z,98203.19
2019-04-22T23:14:34.505Z,98209.84
2019-04-22T23:16:51.401Z,98202.36
2019-04-22T23:19:19.909Z,98202.62
2019-04-22T23:22:01.118Z,98222.12
2019-04-22T23:24:43.747Z,98207.59
2019-04-22T23:27:24.562Z,98210.84
2019-04-22T23:29:49.980Z,98215.44
2019-04-22T23:32:25.433Z,98214.81
2019-04-22T23:35:10.118Z,98212.78
2019-04-22T23:37:47.626Z,98228.22
2019-04-22T23:40:32.609Z,98250.48
2019-04-22T23:43:00.090Z,98261.48
2019-04-22T23:45:33.254Z,98266.38
2019-04-22T23:48:03.301Z,98274.23
2019-04-22T23:50:45.412Z,98262.23
2019-04-22T23:53:17.919Z,98283.34
2019-04-22T23:55:53.168Z,98283.34
2019-04-22T23:58:44.813Z,98268.42
